Blue Diamond, NV (89004)

11:11 PM PST on February 12, 2016 (GMT -0800)
Red Rock Country Club | | Change Station
CLOSE
Current Station
Personal Weather Station
Location: Las Vegas, NV
Elevation: 3087 ft
Nearby Weather Stations

Elev 3087 ft 36.15 °N, 115.34 °W | Updated 6 minutes ago

Clear
Clear
56.4 °F
Feels Like 56.4 °F
N
0.0
Wind Variable Wind from NNE
Gusts 0.0 mph

Today
High -- | Low -- °F
--% Chance of Precip.
Yesterday
High -- | Low -- °F
Precip. -- in
Pressure 30.10 in
Visibility 10.0 miles
Clouds Few 25000 ft
Dew Point 25 °F
Humidity 30%
Rainfall 0.00 in
Snow Depth Not available.
6:32 AM 5:19 PM
Waxing Crescent, 28% visible
METAR KLAS 130656Z 20004KT 10SM FEW250 12/M04 A3012 RMK AO2 SLP191 T01221044
Pressure 30.10 in
Visibility 10.0 miles
Clouds Few 25000 ft
Dew Point 25 °F
Humidity 30%
Rainfall 0.00 in
Snow Depth Not available.
6:32 AM 5:19 PM
Waxing Crescent, 28% visible
METAR KLAS 130656Z 20004KT 10SM FEW250 12/M04 A3012 RMK AO2 SLP191 T01221044

10-Day Weather Forecast

Almanac

Astronomy

Feb. 12, 2016 Rise Set
Actual Time
Civil Twilight
Nautical Twilight
Astronomical Twilight
Moon
Length of Visible Light
Length of Day
Tomorrow will be .
, % of the Moon is Illuminated

Today's Extremes

State Highs State Lows

Community

WunderPhotos

Upload Photos

1,892,526 photos uploaded!

WunderBlog® & News

Nearby

Air Quality

  Air Quality AQ Index Pollutant
Not available.

Snow Depth

Station Depth Elevation

Earthquake Activity

City Distance Mag. Time & Date
Minimum magnitude displayed is 2.5.

Coastal Water Temperatures

Place Temperature

Stations

Nearby Weather Stations

Station Location Temp. Windchill Dew Point Humidity Wind Precip. Elev Updated Type
                   

Watches & Warnings

There are currently no watches in effect.